<?xml version="1.0" encoding="UTF-8" standalone="no" ?><gpx xmlns="http://www.topografix.com/GPX/1/1" xmlns:gpxx="http://www.garmin.com/xmlschemas/GpxExtensions/v3" xmlns:gpxtrkx="http://www.garmin.com/xmlschemas/TrackStatsExtension/v1" xmlns:wptx1="http://www.garmin.com/xmlschemas/WaypointExtension/v1" xmlns:gpxtpx="http://www.garmin.com/xmlschemas/TrackPointExtension/v1" creator="eTrex 20" version="1.1" xmlns:xsi="http://www.w3.org/2001/XMLSchema-instance" xsi:schemaLocation="http://www.topografix.com/GPX/1/1 http://www.topografix.com/GPX/1/1/gpx.xsd http://www.garmin.com/xmlschemas/GpxExtensions/v3 http://www8.garmin.com/xmlschemas/GpxExtensionsv3.xsd http://www.garmin.com/xmlschemas/TrackStatsExtension/v1 http://www8.garmin.com/xmlschemas/TrackStatsExtension.xsd http://www.garmin.com/xmlschemas/WaypointExtension/v1 http://www8.garmin.com/xmlschemas/WaypointExtensionv1.xsd http://www.garmin.com/xmlschemas/TrackPointExtension/v1 http://www.garmin.com/xmlschemas/TrackPointExtensionv1.xsd"><metadata><link href="http://www.garmin.com"><text>Garmin International</text></link><time>2015-04-10T07:56:48Z</time></metadata><trk><name>2015-04-10 10:56:43</name><extensions><gpxx:TrackExtension><gpxx:DisplayColor>Cyan</gpxx:DisplayColor></gpxx:TrackExtension><gpxtrkx:TrackStatsExtension><gpxtrkx:Distance>276527</gpxtrkx:Distance></gpxtrkx:TrackStatsExtension></extensions><trkseg><trkpt lat="11.9784708694" lon="38.9844692778"><ele>1951.61</ele><time>2015-04-10T05:17:26Z</time></trkpt><trkpt lat="11.9784716237" lon="38.9844686911"><ele>1951.61</ele><time>2015-04-10T05:17:27Z</time></trkpt><trkpt lat="11.9784604758" lon="38.9844800904"><ele>1964.11</ele><time>2015-04-10T07:02:51Z</time></trkpt><trkpt lat="11.9775336049" lon="38.9843480755"><ele>1964.59</ele><time>2015-04-10T07:03:13Z</time></trkpt><trkpt lat="11.9775186013" lon="38.9843246061"><ele>1964.11</ele><time>2015-04-10T07:03:40Z</time></trkpt><trkpt lat="11.9775121473" lon="38.9843188226"><ele>1961.23</ele><time>2015-04-10T07:04:14Z</time></trkpt><trkpt lat="11.9775351975" lon="38.9843228459"><ele>1956.42</ele><time>2015-04-10T07:04:47Z</time></trkpt><trkpt lat="11.9775354490" lon="38.9843426272"><ele>1954.02</ele><time>2015-04-10T07:05:17Z</time></trkpt><trkpt lat="11.9775324315" lon="38.9843377657"><ele>1951.61</ele><time>2015-04-10T07:05:46Z</time></trkpt><trkpt lat="11.9775440823" lon="38.9843428787"><ele>1949.69</ele><time>2015-04-10T07:06:12Z</time></trkpt><trkpt lat="11.9775324315" lon="38.9843559545"><ele>1948.25</ele><time>2015-04-10T07:06:43Z</time></trkpt><trkpt lat="11.9775388017" lon="38.9843508415"><ele>1948.25</ele><time>2015-04-10T07:07:07Z</time></trkpt><trkpt lat="11.9775631931" lon="38.9843645878"><ele>1953.54</ele><time>2015-04-10T07:07:41Z</time></trkpt><trkpt lat="11.9775781967" lon="38.9843781665"><ele>1955.94</ele><time>2015-04-10T07:08:13Z</time></trkpt><trkpt lat="11.9775750116" lon="38.9843725506"><ele>1958.34</ele><time>2015-04-10T07:08:44Z</time></trkpt><trkpt lat="11.9775432441" lon="38.9843927510"><ele>1964.11</ele><time>2015-04-10T07:09:17Z</time></trkpt><trkpt lat="11.9775287434" lon="38.9843762387"><ele>1965.55</ele><time>2015-04-10T07:09:52Z</time></trkpt><trkpt lat="11.9775263127" lon="38.9843381848"><ele>1961.71</ele><time>2015-04-10T07:10:27Z</time></trkpt><trkpt lat="11.9775192719" lon="38.9843346644"><ele>1958.34</ele><time>2015-04-10T07:11:03Z</time></trkpt><trkpt lat="11.9775266480" lon="38.9843320660"><ele>1957.86</ele><time>2015-04-10T07:11:41Z</time></trkpt><trkpt lat="11.9775363710" lon="38.9843332395"><ele>1957.86</ele><time>2015-04-10T07:12:10Z</time></trkpt><trkpt lat="11.9775534701" lon="38.9843417052"><ele>1960.27</ele><time>2015-04-10T07:12:36Z</time></trkpt><trkpt lat="11.9775123987" lon="38.9843599778"><ele>1962.19</ele><time>2015-04-10T07:13:09Z</time></trkpt><trkpt lat="11.9775326829" lon="38.9843534399"><ele>1961.71</ele><time>2015-04-10T07:13:37Z</time></trkpt><trkpt lat="11.9774993230" lon="38.9843484946"><ele>1959.30</ele><time>2015-04-10T07:14:02Z</time></trkpt><trkpt lat="11.9774835650" lon="38.9843531884"><ele>1960.75</ele><time>2015-04-10T07:14:29Z</time></trkpt><trkpt lat="11.9775065314" lon="38.9843163081"><ele>1960.27</ele><time>2015-04-10T07:14:57Z</time></trkpt><trkpt lat="11.9775064476" lon="38.9842811041"><ele>1960.27</ele><time>2015-04-10T07:15:21Z</time></trkpt><trkpt lat="11.9772901107" lon="38.9840455726"><ele>1959.30</ele><time>2015-04-10T07:15:37Z</time></trkpt><trkpt lat="11.9766172953" lon="38.9840018190"><ele>1959.30</ele><time>2015-04-10T07:15:57Z</time></trkpt><trkpt lat="11.9754911028" lon="38.9838832989"><ele>1957.38</ele><time>2015-04-10T07:16:18Z</time></trkpt><trkpt lat="11.9750560820" lon="38.9838304091"><ele>1957.38</ele><time>2015-04-10T07:16:25Z</time></trkpt><trkpt lat="11.9746661559" lon="38.9839647710"><ele>1955.94</ele><time>2015-04-10T07:16:33Z</time></trkpt><trkpt lat="11.9745029602" lon="38.9843282104"><ele>1956.42</ele><time>2015-04-10T07:16:41Z</time></trkpt><trkpt lat="11.9744640682" lon="38.9857053570"><ele>1960.75</ele><time>2015-04-10T07:17:00Z</time></trkpt><trkpt lat="11.9743405189" lon="38.9873705059"><ele>1962.67</ele><time>2015-04-10T07:17:23Z</time></trkpt><trkpt lat="11.9741574582" lon="38.9889514167"><ele>1964.11</ele><time>2015-04-10T07:17:50Z</time></trkpt><trkpt lat="11.9740019739" lon="38.9903058484"><ele>1965.55</ele><time>2015-04-10T07:18:13Z</time></trkpt><trkpt lat="11.9740863796" lon="38.9906441420"><ele>1966.51</ele><time>2015-04-10T07:18:20Z</time></trkpt><trkpt lat="11.9742176402" lon="38.9910052344"><ele>1965.55</ele><time>2015-04-10T07:18:34Z</time></trkpt><trkpt lat="11.9740721304" lon="38.9910364151"><ele>1966.03</ele><time>2015-04-10T07:18:46Z</time></trkpt><trkpt lat="11.9738702942" lon="38.9909261931"><ele>1969.40</ele><time>2015-04-10T07:19:04Z</time></trkpt><trkpt lat="11.9738633372" lon="38.9907220937"><ele>1973.24</ele><time>2015-04-10T07:19:25Z</time></trkpt><trkpt lat="11.9738880638" lon="38.9907438029"><ele>1973.24</ele><time>2015-04-10T07:19:51Z</time></trkpt><trkpt lat="11.9739212561" lon="38.9906598162"><ele>1973.24</ele><time>2015-04-10T07:19:58Z</time></trkpt><trkpt lat="11.9739825279" lon="38.9905852173"><ele>1973.72</ele><time>2015-04-10T07:20:03Z</time></trkpt><trkpt lat="11.9741963502" lon="38.9903123863"><ele>1974.69</ele><time>2015-04-10T07:20:09Z</time></trkpt><trkpt lat="11.9743512478" lon="38.9870693441"><ele>1953.06</ele><time>2015-04-10T07:20:15Z</time></trkpt><trkpt lat="11.9747059699" lon="38.9843733888"><ele>1950.65</ele><time>2015-04-10T07:20:21Z</time></trkpt><trkpt lat="11.9749871828" lon="38.9821394440"><ele>1949.69</ele><time>2015-04-10T07:20:25Z</time></trkpt><trkpt lat="11.9754863251" lon="38.9781859517"><ele>1946.81</ele><time>2015-04-10T07:20:31Z</time></trkpt><trkpt lat="11.9761178177" lon="38.9729983080"><ele>1941.04</ele><time>2015-04-10T07:20:38Z</time></trkpt><trkpt lat="11.9769998454" lon="38.9659518935"><ele>1939.60</ele><time>2015-04-10T07:20:47Z</time></trkpt><trkpt lat="11.9781276304" lon="38.9579151571"><ele>1940.08</ele><time>2015-04-10T07:20:57Z</time></trkpt><trkpt lat="11.9794006739" lon="38.9495900832"><ele>1941.52</ele><time>2015-04-10T07:21:07Z</time></trkpt><trkpt lat="11.9804980326" lon="38.9402960613"><ele>1953.54</ele><time>2015-04-10T07:21:18Z</time></trkpt><trkpt lat="11.9815041963" lon="38.9315662254"><ele>1965.55</ele><time>2015-04-10T07:21:28Z</time></trkpt><trkpt lat="11.9826173130" lon="38.9231678098"><ele>1976.13</ele><time>2015-04-10T07:21:38Z</time></trkpt><trkpt lat="11.9834284298" lon="38.9163788036"><ele>1988.62</ele><time>2015-04-10T07:21:46Z</time></trkpt><trkpt lat="11.9847526029" lon="38.9055745304"><ele>2013.14</ele><time>2015-04-10T07:21:58Z</time></trkpt><trkpt lat="11.9856749475" lon="38.9012959041"><ele>2020.83</ele><time>2015-04-10T07:22:03Z</time></trkpt><trkpt lat="11.9870873820" lon="38.8982681092"><ele>2022.27</ele><time>2015-04-10T07:22:07Z</time></trkpt><trkpt lat="11.9901157636" lon="38.8931909390"><ele>2025.64</ele><time>2015-04-10T07:22:14Z</time></trkpt><trkpt lat="12.0308471192" lon="38.8876546081"><ele>3319.09</ele><time>2015-04-10T07:23:01Z</time></trkpt><trkpt lat="12.0413726103" lon="38.8864310179"><ele>3439.25</ele><time>2015-04-10T07:23:13Z</time></trkpt><trkpt lat="12.0570795424" lon="38.8845840655"><ele>3616.62</ele><time>2015-04-10T07:23:31Z</time></trkpt><trkpt lat="12.0692145266" lon="38.8836508244"><ele>3756.49</ele><time>2015-04-10T07:23:45Z</time></trkpt><trkpt lat="12.0831033401" lon="38.8828040008"><ele>3912.22</ele><time>2015-04-10T07:24:01Z</time></trkpt><trkpt lat="12.0980882552" lon="38.8817627169"><ele>4070.36</ele><time>2015-04-10T07:24:18Z</time></trkpt><trkpt lat="12.1132751741" lon="38.8804208580"><ele>4223.69</ele><time>2015-04-10T07:24:35Z</time></trkpt><trkpt lat="12.1284055151" lon="38.8791356608"><ele>4379.90</ele><time>2015-04-10T07:24:52Z</time></trkpt><trkpt lat="12.1400022134" lon="38.8783149887"><ele>4496.70</ele><time>2015-04-10T07:25:05Z</time></trkpt><trkpt lat="12.1524835378" lon="38.8773785625"><ele>4617.35</ele><time>2015-04-10T07:25:19Z</time></trkpt><trkpt lat="12.1668482758" lon="38.8765465748"><ele>4746.65</ele><time>2015-04-10T07:25:35Z</time></trkpt><trkpt lat="12.1769327112" lon="38.8760057744"><ele>4831.24</ele><time>2015-04-10T07:25:46Z</time></trkpt><trkpt lat="12.1910431422" lon="38.8751053903"><ele>4949.49</ele><time>2015-04-10T07:26:01Z</time></trkpt><trkpt lat="12.2146865632" lon="38.8731434382"><ele>5143.19</ele><time>2015-04-10T07:26:26Z</time></trkpt><trkpt lat="12.2298809420" lon="38.8718832191"><ele>5272.97</ele><time>2015-04-10T07:26:42Z</time></trkpt><trkpt lat="12.2472905740" lon="38.8704644144"><ele>5402.75</ele><time>2015-04-10T07:27:00Z</time></trkpt><trkpt lat="12.2628058959" lon="38.8691735175"><ele>5518.10</ele><time>2015-04-10T07:27:16Z</time></trkpt><trkpt lat="12.2737919725" lon="38.8683637418"><ele>5598.38</ele><time>2015-04-10T07:27:27Z</time></trkpt><trkpt lat="12.2862181440" lon="38.8676955365"><ele>5671.92</ele><time>2015-04-10T07:27:39Z</time></trkpt><trkpt lat="12.3000746872" lon="38.8667631336"><ele>5748.34</ele><time>2015-04-10T07:27:52Z</time></trkpt><trkpt lat="12.3174408171" lon="38.8652704842"><ele>5836.30</ele><time>2015-04-10T07:28:08Z</time></trkpt><trkpt lat="12.3351158202" lon="38.8638446387"><ele>5919.46</ele><time>2015-04-10T07:28:24Z</time></trkpt><trkpt lat="12.3541213665" lon="38.8623327110"><ele>6012.70</ele><time>2015-04-10T07:28:41Z</time></trkpt><trkpt lat="12.3723940831" lon="38.8610574882"><ele>6086.72</ele><time>2015-04-10T07:28:57Z</time></trkpt><trkpt lat="12.3945659772" lon="38.8594269566"><ele>6180.93</ele><time>2015-04-10T07:29:16Z</time></trkpt><trkpt lat="12.4194898177" lon="38.8575815130"><ele>6282.35</ele><time>2015-04-10T07:29:37Z</time></trkpt><trkpt lat="12.4470540415" lon="38.8555258512"><ele>6406.84</ele><time>2015-04-10T07:30:00Z</time></trkpt><trkpt lat="12.4710384384" lon="38.8537221495"><ele>6518.84</ele><time>2015-04-10T07:30:20Z</time></trkpt><trkpt lat="12.4869165290" lon="38.8524763472"><ele>6582.28</ele><time>2015-04-10T07:30:33Z</time></trkpt><trkpt lat="12.5020803977" lon="38.8514396735"><ele>6622.66</ele><time>2015-04-10T07:30:45Z</time></trkpt><trkpt lat="12.5164689403" lon="38.8504508603"><ele>6646.21</ele><time>2015-04-10T07:30:56Z</time></trkpt><trkpt lat="12.5326788705" lon="38.8495218940"><ele>6648.62</ele><time>2015-04-10T07:31:08Z</time></trkpt><trkpt lat="12.5507963542" lon="38.8483371958"><ele>6623.62</ele><time>2015-04-10T07:31:21Z</time></trkpt><trkpt lat="12.5706803240" lon="38.8469611388"><ele>6614.97</ele><time>2015-04-10T07:31:35Z</time></trkpt><trkpt lat="12.5924611185" lon="38.8454352133"><ele>6612.57</ele><time>2015-04-10T07:31:50Z</time></trkpt><trkpt lat="12.6132647507" lon="38.8439956214"><ele>6606.32</ele><time>2015-04-10T07:32:04Z</time></trkpt><trkpt lat="12.6374151930" lon="38.8422808517"><ele>6608.24</ele><time>2015-04-10T07:32:20Z</time></trkpt><trkpt lat="12.6666034944" lon="38.8402243517"><ele>6604.39</ele><time>2015-04-10T07:32:39Z</time></trkpt><trkpt lat="12.6947968639" lon="38.8380522653"><ele>6585.17</ele><time>2015-04-10T07:32:57Z</time></trkpt><trkpt lat="12.7264840622" lon="38.8356574718"><ele>6566.90</ele><time>2015-04-10T07:33:17Z</time></trkpt><trkpt lat="12.7633554675" lon="38.8329657074"><ele>6551.52</ele><time>2015-04-10T07:33:40Z</time></trkpt><trkpt lat="12.8021205962" lon="38.8301504776"><ele>6544.31</ele><time>2015-04-10T07:34:04Z</time></trkpt><trkpt lat="12.8166852426" lon="38.8287784439"><ele>6543.83</ele><time>2015-04-10T07:34:13Z</time></trkpt><trkpt lat="12.8361981455" lon="38.8266782742"><ele>6542.39</ele><time>2015-04-10T07:34:25Z</time></trkpt><trkpt lat="12.8541662637" lon="38.8253025524"><ele>6540.95</ele><time>2015-04-10T07:34:36Z</time></trkpt><trkpt lat="12.8852998372" lon="38.8231252693"><ele>6536.62</ele><time>2015-04-10T07:34:55Z</time></trkpt><trkpt lat="12.9181523714" lon="38.8201836403"><ele>6532.30</ele><time>2015-04-10T07:35:15Z</time></trkpt><trkpt lat="12.9543631151" lon="38.8173735235"><ele>6528.45</ele><time>2015-04-10T07:35:37Z</time></trkpt><trkpt lat="12.9806886613" lon="38.8159761764"><ele>6519.80</ele><time>2015-04-10T07:35:53Z</time></trkpt><trkpt lat="13.0069145467" lon="38.8142236043"><ele>6516.43</ele><time>2015-04-10T07:36:09Z</time></trkpt><trkpt lat="13.0510627013" lon="38.8108237367"><ele>6515.95</ele><time>2015-04-10T07:36:36Z</time></trkpt><trkpt lat="13.0902113020" lon="38.8078074250"><ele>6514.51</ele><time>2015-04-10T07:37:00Z</time></trkpt><trkpt lat="13.1260142662" lon="38.8051518705"><ele>6514.99</ele><time>2015-04-10T07:37:22Z</time></trkpt><trkpt lat="13.1585072167" lon="38.8026944641"><ele>6516.43</ele><time>2015-04-10T07:37:42Z</time></trkpt><trkpt lat="13.1909224670" lon="38.8001862634"><ele>6519.80</ele><time>2015-04-10T07:38:02Z</time></trkpt><trkpt lat="13.2249002717" lon="38.7975342292"><ele>6522.20</ele><time>2015-04-10T07:38:23Z</time></trkpt><trkpt lat="13.2588582113" lon="38.7949491665"><ele>6527.97</ele><time>2015-04-10T07:38:44Z</time></trkpt><trkpt lat="13.2992174942" lon="38.7918945495"><ele>6537.58</ele><time>2015-04-10T07:39:09Z</time></trkpt><trkpt lat="13.3411685005" lon="38.7888258509"><ele>6532.30</ele><time>2015-04-10T07:39:35Z</time></trkpt><trkpt lat="13.3733141050" lon="38.7865118589"><ele>6539.51</ele><time>2015-04-10T07:39:55Z</time></trkpt><trkpt lat="13.4184474684" lon="38.7830580957"><ele>6527.97</ele><time>2015-04-10T07:40:23Z</time></trkpt><trkpt lat="13.4457766637" lon="38.7806469575"><ele>6518.36</ele><time>2015-04-10T07:40:40Z</time></trkpt><trkpt lat="13.4730046894" lon="38.7784400862"><ele>6505.86</ele><time>2015-04-10T07:40:57Z</time></trkpt><trkpt lat="13.5114443488" lon="38.7756501697"><ele>6495.77</ele><time>2015-04-10T07:41:21Z</time></trkpt><trkpt lat="13.5275169834" lon="38.7744817324"><ele>6493.84</ele><time>2015-04-10T07:41:31Z</time></trkpt><trkpt lat="13.5471127834" lon="38.7732705474"><ele>6490.00</ele><time>2015-04-10T07:41:43Z</time></trkpt><trkpt lat="13.5618684534" lon="38.7727104686"><ele>6476.54</ele><time>2015-04-10T07:41:52Z</time></trkpt><trkpt lat="13.5732509941" lon="38.7716992758"><ele>6468.85</ele><time>2015-04-10T07:41:59Z</time></trkpt><trkpt lat="13.5912186094" lon="38.7702659704"><ele>6444.33</ele><time>2015-04-10T07:42:10Z</time></trkpt><trkpt lat="13.6094771605" lon="38.7685823813"><ele>6408.77</ele><time>2015-04-10T07:42:21Z</time></trkpt><trkpt lat="13.6259071156" lon="38.7667282205"><ele>6388.58</ele><time>2015-04-10T07:42:31Z</time></trkpt><trkpt lat="13.6440438777" lon="38.7642860692"><ele>6366.47</ele><time>2015-04-10T07:42:42Z</time></trkpt><trkpt lat="13.6653772462" lon="38.7612068933"><ele>6365.51</ele><time>2015-04-10T07:42:55Z</time></trkpt><trkpt lat="13.6797307525" lon="38.7589262612"><ele>6364.06</ele><time>2015-04-10T07:43:04Z</time></trkpt><trkpt lat="13.6939476337" lon="38.7564235926"><ele>6358.78</ele><time>2015-04-10T07:43:13Z</time></trkpt><trkpt lat="13.7159948051" lon="38.7527161092"><ele>6351.57</ele><time>2015-04-10T07:43:27Z</time></trkpt><trkpt lat="13.7276807707" lon="38.7508442625"><ele>6353.49</ele><time>2015-04-10T07:43:35Z</time></trkpt><trkpt lat="13.7462611031" lon="38.7481195573"><ele>6354.93</ele><time>2015-04-10T07:43:48Z</time></trkpt><trkpt lat="13.7677543145" lon="38.7448294926"><ele>6357.82</ele><time>2015-04-10T07:44:03Z</time></trkpt><trkpt lat="13.7932316121" lon="38.7411589734"><ele>6362.14</ele><time>2015-04-10T07:44:21Z</time></trkpt><trkpt lat="13.8140190672" lon="38.7381757703"><ele>6365.51</ele><time>2015-04-10T07:44:36Z</time></trkpt><trkpt lat="13.8371490967" lon="38.7349176407"><ele>6369.35</ele><time>2015-04-10T07:44:53Z</time></trkpt><trkpt lat="13.8556506392" lon="38.7323580589"><ele>6371.76</ele><time>2015-04-10T07:45:07Z</time></trkpt><trkpt lat="13.8741358370" lon="38.7311002705"><ele>5723.83</ele><time>2015-04-10T07:45:20Z</time></trkpt><trkpt lat="13.8908123039" lon="38.7284174748"><ele>5660.86</ele><time>2015-04-10T07:45:33Z</time></trkpt><trkpt lat="13.9046572801" lon="38.7261951808"><ele>5643.08</ele><time>2015-04-10T07:45:44Z</time></trkpt><trkpt lat="13.9195483178" lon="38.7241792493"><ele>5619.52</ele><time>2015-04-10T07:45:56Z</time></trkpt><trkpt lat="13.9354342874" lon="38.7223094981"><ele>5593.09</ele><time>2015-04-10T07:46:09Z</time></trkpt><trkpt lat="13.9472200815" lon="38.7206368055"><ele>5578.19</ele><time>2015-04-10T07:46:19Z</time></trkpt><trkpt lat="13.9644415397" lon="38.7178719509"><ele>5572.42</ele><time>2015-04-10T07:46:34Z</time></trkpt><trkpt lat="13.9812408853" lon="38.7151199207"><ele>5549.35</ele><time>2015-04-10T07:46:49Z</time></trkpt><trkpt lat="13.9944818616" lon="38.7131343316"><ele>5498.88</ele><time>2015-04-10T07:47:01Z</time></trkpt><trkpt lat="14.0176528785" lon="38.7093890458"><ele>5460.91</ele><time>2015-04-10T07:47:22Z</time></trkpt><trkpt lat="14.0398168098" lon="38.7059578300"><ele>5419.09</ele><time>2015-04-10T07:47:42Z</time></trkpt><trkpt lat="14.0610430576" lon="38.7027665880"><ele>5355.16</ele><time>2015-04-10T07:48:01Z</time></trkpt><trkpt lat="14.0823387913" lon="38.6999291461"><ele>5281.14</ele><time>2015-04-10T07:48:20Z</time></trkpt><trkpt lat="14.1012482811" lon="38.6974937841"><ele>5188.37</ele><time>2015-04-10T07:48:37Z</time></trkpt><trkpt lat="14.1209367011" lon="38.6946618743"><ele>5147.04</ele><time>2015-04-10T07:48:55Z</time></trkpt><trkpt lat="14.1357990727" lon="38.6927392334"><ele>5095.61</ele><time>2015-04-10T07:49:09Z</time></trkpt><trkpt lat="14.1536847129" lon="38.6904591881"><ele>5046.58</ele><time>2015-04-10T07:49:26Z</time></trkpt><trkpt lat="14.1670066584" lon="38.6887206137"><ele>5000.44</ele><time>2015-04-10T07:49:39Z</time></trkpt><trkpt lat="14.1729656048" lon="38.6881318688"><ele>4966.31</ele><time>2015-04-10T07:49:45Z</time></trkpt><trkpt lat="14.2023875099" lon="38.7084727362"><ele>2733.17</ele><time>2015-04-10T07:50:24Z</time></trkpt><trkpt lat="14.2048272304" lon="38.7134602200"><ele>2703.85</ele><time>2015-04-10T07:50:31Z</time></trkpt><trkpt lat="14.2080038879" lon="38.7207715865"><ele>2658.66</ele><time>2015-04-10T07:50:41Z</time></trkpt><trkpt lat="14.2112015001" lon="38.7291359715"><ele>2604.35</ele><time>2015-04-10T07:50:52Z</time></trkpt><trkpt lat="14.2127323709" lon="38.7342669535"><ele>2573.59</ele><time>2015-04-10T07:50:59Z</time></trkpt><trkpt lat="14.2131424136" lon="38.7372473069"><ele>2553.40</ele><time>2015-04-10T07:51:03Z</time></trkpt><trkpt lat="14.2132352013" lon="38.7410558760"><ele>2526.96</ele><time>2015-04-10T07:51:08Z</time></trkpt><trkpt lat="14.2131321039" lon="38.7440436054"><ele>2510.62</ele><time>2015-04-10T07:51:12Z</time></trkpt><trkpt lat="14.2085762043" lon="38.7479356583"><ele>2415.93</ele><time>2015-04-10T07:51:20Z</time></trkpt><trkpt lat="14.2065197881" lon="38.7503673322"><ele>2383.73</ele><time>2015-04-10T07:51:25Z</time></trkpt><trkpt lat="14.2036574520" lon="38.7526494730"><ele>2347.20</ele><time>2015-04-10T07:51:31Z</time></trkpt><trkpt lat="14.2002259847" lon="38.7547834218"><ele>2306.82</ele><time>2015-04-10T07:51:38Z</time></trkpt><trkpt lat="14.1960191913" lon="38.7566307094"><ele>2263.56</ele><time>2015-04-10T07:51:46Z</time></trkpt><trkpt lat="14.1899931896" lon="38.7587145343"><ele>2210.21</ele><time>2015-04-10T07:51:57Z</time></trkpt><trkpt lat="14.1835342627" lon="38.7604966946"><ele>2153.97</ele><time>2015-04-10T07:52:09Z</time></trkpt><trkpt lat="14.1752358433" lon="38.7627455592"><ele>2091.49</ele><time>2015-04-10T07:52:24Z</time></trkpt><trkpt lat="14.1674876120" lon="38.7653928157"><ele>2038.61</ele><time>2015-04-10T07:52:38Z</time></trkpt><trkpt lat="14.1598299891" lon="38.7680501305"><ele>1991.99</ele><time>2015-04-10T07:52:52Z</time></trkpt><trkpt lat="14.1524033714" lon="38.7706269789"><ele>1962.67</ele><time>2015-04-10T07:53:06Z</time></trkpt><trkpt lat="14.1490553878" lon="38.7718321290"><ele>1943.44</ele><time>2015-04-10T07:53:13Z</time></trkpt><trkpt lat="14.1461846698" lon="38.7727791164"><ele>1936.71</ele><time>2015-04-10T07:53:20Z</time></trkpt><trkpt lat="14.1442447621" lon="38.7734230142"><ele>1933.83</ele><time>2015-04-10T07:53:26Z</time></trkpt><trkpt lat="14.1435037181" lon="38.7736855354"><ele>1932.87</ele><time>2015-04-10T07:53:30Z</time></trkpt><trkpt lat="14.1430646740" lon="38.7738329731"><ele>1933.35</ele><time>2015-04-10T07:53:36Z</time></trkpt><trkpt lat="14.1428367700" lon="38.7739602104"><ele>1944.40</ele><time>2015-04-10T07:53:45Z</time></trkpt><trkpt lat="14.1429781727" lon="38.7742977496"><ele>1954.50</ele><time>2015-04-10T07:53:55Z</time></trkpt><trkpt lat="14.1430743970" lon="38.7744274177"><ele>1957.38</ele><time>2015-04-10T07:53:58Z</time></trkpt><trkpt lat="14.1437333822" lon="38.7753894925"><ele>1985.74</ele><time>2015-04-10T07:54:20Z</time></trkpt><trkpt lat="14.1435643192" lon="38.7756573781"><ele>2008.33</ele><time>2015-04-10T07:54:31Z</time></trkpt><trkpt lat="14.1431605630" lon="38.7758008763"><ele>2016.50</ele><time>2015-04-10T07:54:40Z</time></trkpt><trkpt lat="14.1429793462" lon="38.7762448657"><ele>2027.08</ele><time>2015-04-10T07:54:50Z</time></trkpt><trkpt lat="14.1430101916" lon="38.7763394974"><ele>2028.04</ele><time>2015-04-10T07:54:52Z</time></trkpt><trkpt lat="14.1433064081" lon="38.7768504582"><ele>2047.26</ele><time>2015-04-10T07:55:08Z</time></trkpt><trkpt lat="14.1436009482" lon="38.7768087164"><ele>2061.20</ele><time>2015-04-10T07:55:26Z</time></trkpt><trkpt lat="14.1437118407" lon="38.7767630350"><ele>2070.82</ele><time>2015-04-10T07:55:46Z</time></trkpt><trkpt lat="14.1436973400" lon="38.7767601013"><ele>2077.55</ele><time>2015-04-10T07:56:13Z</time></trkpt><trkpt lat="14.1436769720" lon="38.7767741829"><ele>2082.35</ele><time>2015-04-10T07:56:41Z</time></trkpt></trkseg></trk></gpx>